createdAt,value
2022-10-05T00:01:46.034Z,98138.22
2022-10-05T00:04:16.572Z,98138.28
2022-10-05T00:06:45.519Z,98149.81
2022-10-05T00:09:17.922Z,98143.66
2022-10-05T00:11:46.330Z,98147.22
2022-10-05T00:14:16.886Z,98139.16
2022-10-05T00:16:46.986Z,98144.53
2022-10-05T00:19:21.421Z,98150.00
2022-10-05T00:21:49.758Z,98148.09
2022-10-05T00:24:20.581Z,98147.31
2022-10-05T00:26:55.407Z,98153.56
2022-10-05T00:29:26.043Z,98148.19
2022-10-05T00:31:55.886Z,98150.00
2022-10-05T00:34:26.682Z,98145.56
2022-10-05T00:36:54.923Z,98158.19
2022-10-05T00:39:23.185Z,98151.03
2022-10-05T00:42:00.581Z,98153.72
2022-10-05T00:44:36.550Z,98153.72
2022-10-05T00:47:16.035Z,98148.34
2022-10-05T00:49:55.506Z,98147.47
2022-10-05T00:52:26.495Z,98143.94
2022-10-05T00:54:58.798Z,98149.38
2022-10-05T00:57:32.816Z,98142.97
2022-10-05T01:00:05.366Z,98143.06
2022-10-05T01:02:41.316Z,98135.94
2022-10-05T01:05:12.368Z,98136.81
2022-10-05T01:07:43.797Z,98138.56
2022-10-05T01:10:15.940Z,98132.31
2022-10-05T01:12:48.622Z,98135.09
2022-10-05T01:15:18.149Z,98134.13
2022-10-05T01:17:49.866Z,98127.88
2022-10-05T01:20:29.209Z,98131.34
2022-10-05T01:23:21.154Z,98134.03
2022-10-05T01:25:54.272Z,98138.56
2022-10-05T01:28:27.545Z,98134.91
2022-10-05T01:31:00.673Z,98140.38
2022-10-05T01:33:31.964Z,98144.78
2022-10-05T01:36:03.021Z,98146.69
2022-10-05T01:38:37.584Z,98143.16
2022-10-05T01:41:10.071Z,98139.41
2022-10-05T01:43:42.446Z,98139.50
2022-10-05T01:46:16.149Z,98143.16
2022-10-05T01:48:49.216Z,98140.47
2022-10-05T01:51:20.475Z,98136.91
2022-10-05T01:53:55.010Z,98137.69
2022-10-05T01:56:26.646Z,98134.22
2022-10-05T01:59:00.514Z,98134.22
2022-10-05T02:01:31.652Z,98136.91
2022-10-05T02:04:04.245Z,98133.25
2022-10-05T02:06:33.959Z,98135.94
2022-10-05T02:09:04.189Z,98140.47
2022-10-05T02:11:32.394Z,98147.66
2022-10-05T02:14:03.130Z,98141.41
2022-10-05T02:16:34.329Z,98142.38
2022-10-05T02:19:04.197Z,98124.47
2022-10-05T02:21:32.415Z,98120.84
2022-10-05T02:24:02.677Z,98121.78
2022-10-05T02:26:30.992Z,98115.53
2022-10-05T02:29:00.429Z,98113.81
2022-10-05T02:31:33.532Z,98120.91
2022-10-05T02:34:27.497Z,98133.44
2022-10-05T02:37:13.850Z,98117.38
2022-10-05T02:39:49.014Z,98119.09
2022-10-05T02:42:20.522Z,98108.44
2022-10-05T02:44:52.579Z,98100.47
2022-10-05T02:47:25.060Z,98105.84
2022-10-05T02:49:55.145Z,98104.09
2022-10-05T02:52:26.634Z,98100.47
2022-10-05T02:55:00.172Z,98101.31
2022-10-05T02:57:29.918Z,98102.28
2022-10-05T03:00:01.761Z,98089.75
2022-10-05T03:02:35.110Z,98091.53
2022-10-05T03:05:07.874Z,98096.91
2022-10-05T03:07:40.235Z,98092.41
2022-10-05T03:10:11.138Z,98092.41
2022-10-05T03:12:46.656Z,98084.31
2022-10-05T03:15:21.801Z,98081.69
2022-10-05T03:17:56.323Z,98087.94
2022-10-05T03:20:31.551Z,98081.69
2022-10-05T03:23:00.866Z,98083.44
2022-10-05T03:25:43.903Z,98079.09
2022-10-05T03:28:15.948Z,98077.28
2022-10-05T03:30:46.958Z,98074.59
2022-10-05T03:33:20.502Z,98068.25
2022-10-05T03:35:52.690Z,98066.53
2022-10-05T03:38:24.898Z,98068.34
2022-10-05T03:40:55.511Z,98066.53
2022-10-05T03:43:35.717Z,98059.50
2022-10-05T03:46:05.854Z,98051.31
2022-10-05T03:48:38.873Z,98063.94
2022-10-05T03:51:09.329Z,98049.50
2022-10-05T03:53:40.955Z,98064.72
2022-10-05T03:56:14.908Z,98059.34
2022-10-05T03:58:46.433Z,98061.25
2022-10-05T04:01:17.130Z,98062.09
2022-10-05T04:03:48.484Z,98052.19
2022-10-05T04:06:18.290Z,98052.19
2022-10-05T04:08:48.756Z,98057.59
2022-10-05T04:11:21.857Z,98058.56
2022-10-05T04:13:51.870Z,98062.09
2022-10-05T04:16:22.584Z,98068.34
2022-10-05T04:18:56.497Z,98049.50
2022-10-05T04:21:26.358Z,98053.94
2022-10-05T04:23:58.986Z,98051.25
2022-10-05T04:26:33.467Z,98061.94
2022-10-05T04:29:06.252Z,98069.22
2022-10-05T04:31:44.970Z,98070.09
2022-10-05T04:34:18.795Z,98067.31
2022-10-05T04:36:49.643Z,98068.25
2022-10-05T04:39:22.031Z,98064.63
2022-10-05T04:41:57.302Z,98063.75
2022-10-05T04:44:37.244Z,98075.38
2022-10-05T04:47:31.181Z,98070.88
2022-10-05T04:50:14.317Z,98075.28
2022-10-05T04:53:01.742Z,98083.34
2022-10-05T04:55:32.667Z,98076.16
2022-10-05T04:58:05.218Z,98074.34
2022-10-05T05:00:35.352Z,98074.41
2022-10-05T05:03:30.533Z,98080.56
2022-10-05T05:06:16.806Z,98079.63
2022-10-05T05:09:25.700Z,98080.50
2022-10-05T05:12:09.235Z,98084.91
2022-10-05T05:14:45.775Z,98087.59
2022-10-05T05:17:22.403Z,98091.16
2022-10-05T05:19:54.412Z,98079.53
2022-10-05T05:22:27.092Z,98100.03
2022-10-05T05:25:04.826Z,98090.19
2022-10-05T05:27:40.726Z,98092.81
2022-10-05T05:30:16.999Z,98087.44
2022-10-05T05:32:50.064Z,98094.53
2022-10-05T05:36:06.019Z,98091.75
2022-10-05T05:38:36.810Z,98099.81
2022-10-05T05:41:10.344Z,98097.13
2022-10-05T05:44:02.906Z,98098.88
2022-10-05T05:47:01.598Z,98095.22
2022-10-05T05:49:29.275Z,98100.53
2022-10-05T05:51:59.329Z,98094.09
2022-10-05T05:54:32.859Z,98100.25
2022-10-05T05:57:09.113Z,98097.50
2022-10-05T05:59:55.942Z,98091.16
2022-10-05T06:02:27.143Z,98100.97
2022-10-05T06:04:58.012Z,98110.84
2022-10-05T06:07:30.746Z,98108.16
2022-10-05T06:10:07.118Z,98109.81
2022-10-05T06:12:46.853Z,98115.22
2022-10-05T06:15:29.612Z,98113.34
2022-10-05T06:17:58.965Z,98118.59
2022-10-05T06:20:29.766Z,98114.06
2022-10-05T06:23:00.195Z,98115.78
2022-10-05T06:25:33.318Z,98106.84
2022-10-05T06:28:05.263Z,98113.97
2022-10-05T06:30:42.756Z,98101.41
2022-10-05T06:33:18.045Z,98104.09
2022-10-05T06:35:57.490Z,98107.56
2022-10-05T06:38:39.765Z,98116.47
2022-10-05T06:41:14.786Z,98112.84
2022-10-05T06:43:50.335Z,98111.03
2022-10-05T06:46:38.903Z,98111.03
2022-10-05T06:49:38.290Z,98104.69
2022-10-05T06:52:27.782Z,98106.44
2022-10-05T06:55:04.173Z,98106.44
2022-10-05T06:57:59.331Z,98112.59
2022-10-05T07:00:30.246Z,98100.84
2022-10-05T07:03:02.063Z,98104.09
2022-10-05T07:05:47.913Z,98106.59
2022-10-05T07:08:18.826Z,98110.09
2022-10-05T07:10:55.230Z,98112.50
2022-10-05T07:13:44.229Z,98117.72
2022-10-05T07:16:14.982Z,98117.53
2022-10-05T07:19:04.871Z,98111.38
2022-10-05T07:21:35.829Z,98115.00
2022-10-05T07:24:07.582Z,98118.50
2022-10-05T07:26:39.186Z,98119.25
2022-10-05T07:29:33.915Z,98115.44
2022-10-05T07:32:12.170Z,98109.41
2022-10-05T07:34:47.647Z,98113.97
2022-10-05T07:37:36.170Z,98113.91
2022-10-05T07:40:10.361Z,98111.66
2022-10-05T07:42:52.130Z,98110.44
2022-10-05T07:45:29.522Z,98114.69
2022-10-05T07:47:59.449Z,98124.31
2022-10-05T07:50:30.443Z,98114.34
2022-10-05T07:53:00.676Z,98117.81
2022-10-05T07:55:33.258Z,98117.72
2022-10-05T07:58:07.267Z,98117.59
2022-10-05T08:00:58.222Z,98104.25
2022-10-05T08:03:31.632Z,98099.69
2022-10-05T08:06:00.307Z,98106.50
2022-10-05T08:08:31.189Z,98095.25
2022-10-05T08:11:01.805Z,98092.84
2022-10-05T08:13:32.408Z,98091.78
2022-10-05T08:16:03.640Z,98096.22
2022-10-05T08:18:41.447Z,98103.31
2022-10-05T08:21:12.175Z,98097.16
2022-10-05T08:23:43.460Z,98090.22
2022-10-05T08:26:17.809Z,98097.50
2022-10-05T08:28:49.274Z,98096.00
2022-10-05T08:31:21.968Z,98090.53
2022-10-05T08:33:56.248Z,98085.63
2022-10-05T08:36:30.519Z,98084.94
2022-10-05T08:39:04.370Z,98093.53
2022-10-05T08:42:01.199Z,98091.50
2022-10-05T08:45:02.067Z,98088.47
2022-10-05T08:48:13.336Z,98091.84
2022-10-05T08:51:04.359Z,98091.66
2022-10-05T08:53:47.152Z,98097.91
2022-10-05T08:56:30.562Z,98094.09
2022-10-05T08:59:16.869Z,98104.66
2022-10-05T09:01:55.656Z,98096.44
2022-10-05T09:04:36.147Z,98090.06
2022-10-05T09:07:15.630Z,98092.66
2022-10-05T09:10:06.321Z,98092.47
2022-10-05T09:12:55.006Z,98093.59
2022-10-05T09:15:36.063Z,98098.44
2022-10-05T09:18:27.615Z,98096.94
2022-10-05T09:20:59.251Z,98086.59
2022-10-05T09:23:38.386Z,98096.09
2022-10-05T09:26:10.040Z,98090.44
2022-10-05T09:28:43.474Z,98089.25
2022-10-05T09:31:36.907Z,98083.78
2022-10-05T09:34:20.174Z,98088.22
2022-10-05T09:40:20.243Z,98082.56
2022-10-05T09:43:23.923Z,98083.44
2022-10-05T09:46:31.518Z,98080.66
2022-10-05T09:49:28.734Z,98082.41
2022-10-05T09:52:19.177Z,98073.28
2022-10-05T09:55:20.238Z,98079.53
2022-10-05T09:58:14.459Z,98082.13
2022-10-05T10:01:03.636Z,98077.53
2022-10-05T10:04:01.519Z,98081.09
2022-10-05T10:06:41.872Z,98071.09
2022-10-05T10:09:25.543Z,98068.31
2022-10-05T10:12:05.787Z,98063.81
2022-10-05T10:15:19.199Z,98059.22
2022-10-05T10:18:23.703Z,98064.50
2022-10-05T10:21:14.546Z,98066.25
2022-10-05T10:24:00.464Z,98063.47
2022-10-05T10:27:01.779Z,98063.31
2022-10-05T10:29:46.087Z,98059.53
2022-10-05T10:32:21.558Z,98049.66
2022-10-05T10:35:32.803Z,98054.94
2022-10-05T10:38:33.535Z,98051.19
2022-10-05T10:41:44.425Z,98045.72
2022-10-05T10:45:03.452Z,98040.34
2022-10-05T10:48:01.489Z,98047.38
2022-10-05T10:50:59.767Z,98040.28
2022-10-05T10:53:38.222Z,98042.97
2022-10-05T10:56:30.892Z,98047.38
2022-10-05T10:59:41.744Z,98052.66
2022-10-05T11:02:44.105Z,98048.94
2022-10-05T11:05:25.678Z,98049.69
2022-10-05T11:08:00.541Z,98048.75
2022-10-05T11:11:00.015Z,98044.22
2022-10-05T11:13:38.367Z,98048.75
2022-10-05T11:16:34.275Z,98037.03
2022-10-05T11:19:52.615Z,98040.50
2022-10-05T11:22:52.544Z,98042.25
2022-10-05T11:25:53.463Z,98040.50
2022-10-05T11:28:31.762Z,98041.38
2022-10-05T11:31:39.908Z,98033.19
2022-10-05T11:34:45.701Z,98034.16
2022-10-05T11:37:50.475Z,98027.81
2022-10-05T11:40:34.655Z,98020.59
2022-10-05T11:43:39.458Z,98020.50
2022-10-05T11:46:12.482Z,98023.09
2022-10-05T11:49:01.738Z,98013.31
2022-10-05T11:52:02.727Z,98014.19
2022-10-05T11:55:11.315Z,98010.50
2022-10-05T11:57:44.174Z,98006.00
2022-10-05T12:00:15.514Z,98008.78
2022-10-05T12:03:22.641Z,97996.19
2022-10-05T12:05:58.254Z,97997.94
2022-10-05T12:08:30.980Z,98004.19
2022-10-05T12:11:07.960Z,98006.00
2022-10-05T12:13:40.804Z,98002.34
2022-10-05T12:16:11.766Z,98002.28
2022-10-05T12:18:50.008Z,98006.78
2022-10-05T12:21:24.323Z,98006.78
2022-10-05T12:23:55.113Z,98005.91
2022-10-05T12:26:26.457Z,98005.03
2022-10-05T12:28:57.133Z,98005.03
2022-10-05T12:31:31.035Z,98005.03
2022-10-05T12:34:24.607Z,98004.19
2022-10-05T12:40:06.393Z,97995.59
2022-10-05T12:42:41.601Z,97993.84
2022-10-05T12:45:17.902Z,97999.44
2022-10-05T12:47:58.554Z,97995.00
2022-10-05T12:50:29.174Z,97992.31
2022-10-05T12:53:15.931Z,97988.69
2022-10-05T12:55:48.023Z,97989.53
2022-10-05T12:58:35.934Z,97986.94
2022-10-05T13:01:07.828Z,97987.91
2022-10-05T13:03:38.507Z,97989.81
2022-10-05T13:06:11.757Z,97989.97
2022-10-05T13:08:42.901Z,97990.28
2022-10-05T13:11:16.296Z,97991.31
2022-10-05T13:13:50.074Z,97985.94
2022-10-05T13:16:24.460Z,97985.84
2022-10-05T13:19:01.400Z,97990.28
2022-10-05T13:21:32.458Z,97987.50
2022-10-05T13:24:02.765Z,97991.06
2022-10-05T13:26:40.805Z,97991.06
2022-10-05T13:29:16.523Z,97987.38
2022-10-05T13:31:46.961Z,97995.38
2022-10-05T13:34:22.414Z,97991.84
2022-10-05T13:36:57.903Z,97992.59
2022-10-05T13:39:32.059Z,97992.59
2022-10-05T13:42:03.073Z,97984.59
2022-10-05T13:44:35.335Z,97985.47
2022-10-05T13:47:06.310Z,97992.59
2022-10-05T13:49:40.639Z,97992.59
2022-10-05T13:52:18.118Z,97994.31
2022-10-05T13:54:49.150Z,97985.38
2022-10-05T13:57:23.460Z,97990.75
2022-10-05T13:59:55.430Z,97985.47
2022-10-05T14:02:29.102Z,97983.66
2022-10-05T14:05:01.556Z,97979.16
2022-10-05T14:07:34.410Z,97986.25
2022-10-05T14:10:04.670Z,97985.47
2022-10-05T14:12:40.210Z,97982.69
2022-10-05T14:15:20.988Z,97980.97
2022-10-05T14:17:51.544Z,97983.66
2022-10-05T14:20:23.167Z,97980.00
2022-10-05T14:22:55.769Z,97979.16
2022-10-05T14:25:24.375Z,97976.47
2022-10-05T14:28:02.037Z,97980.97
2022-10-05T14:30:32.559Z,97982.78
2022-10-05T14:33:10.195Z,97985.47
2022-10-05T14:35:49.171Z,97981.91
2022-10-05T14:38:19.859Z,97973.00
2022-10-05T14:40:48.182Z,97971.25
2022-10-05T14:43:20.316Z,97976.63
2022-10-05T14:46:01.456Z,97973.06
2022-10-05T14:48:30.919Z,97968.66
2022-10-05T14:51:03.418Z,97966.91
2022-10-05T14:53:39.619Z,97961.63
2022-10-05T14:56:22.074Z,97971.44
2022-10-05T14:59:08.979Z,97965.28
2022-10-05T15:01:39.366Z,97960.84
2022-10-05T15:04:17.009Z,97965.34
2022-10-05T15:06:53.298Z,97970.72
2022-10-05T15:09:35.035Z,97966.31
2022-10-05T15:12:03.757Z,97966.44
2022-10-05T15:14:33.132Z,97961.13
2022-10-05T15:17:04.530Z,97963.91
2022-10-05T15:19:40.230Z,97962.19
2022-10-05T15:22:18.885Z,97965.81
2022-10-05T15:24:53.343Z,97958.72
2022-10-05T15:27:25.396Z,97967.63
2022-10-05T15:30:04.187Z,97960.53
2022-10-05T15:32:46.208Z,97964.94
2022-10-05T15:35:36.899Z,97962.34
2022-10-05T15:38:17.905Z,97959.66
2022-10-05T15:40:47.986Z,97964.16
2022-10-05T15:43:18.935Z,97961.56
2022-10-05T15:45:53.912Z,97966.09
2022-10-05T15:48:29.256Z,97958.09
2022-10-05T15:51:01.732Z,97963.50
2022-10-05T15:53:33.485Z,97965.25
2022-10-05T15:56:03.927Z,97963.50
2022-10-05T15:58:43.607Z,97967.16
2022-10-05T16:01:12.624Z,97961.78
2022-10-05T16:03:47.501Z,97959.09
2022-10-05T16:06:48.683Z,97960.03
2022-10-05T16:09:24.733Z,97960.91
2022-10-05T16:11:59.226Z,97956.47
2022-10-05T16:14:34.611Z,97952.94
2022-10-05T16:17:13.762Z,97959.16
2022-10-05T16:19:47.088Z,97951.94
2022-10-05T16:22:20.866Z,97954.66
2022-10-05T16:25:02.790Z,97951.94
2022-10-05T16:27:36.619Z,97953.69
2022-10-05T16:30:06.182Z,97954.66
2022-10-05T16:32:36.924Z,97969.06
2022-10-05T16:35:14.697Z,97965.41
2022-10-05T16:37:47.359Z,97961.00
2022-10-05T16:40:20.708Z,97970.78
2022-10-05T16:42:55.580Z,97969.06
2022-10-05T16:45:45.136Z,97973.47
2022-10-05T16:48:16.807Z,97970.78
2022-10-05T16:50:51.638Z,97978.84
2022-10-05T16:53:22.290Z,97971.75
2022-10-05T16:55:53.083Z,97974.44
2022-10-05T16:58:24.023Z,97971.75
2022-10-05T17:01:06.635Z,97976.16
2022-10-05T17:03:41.649Z,97972.59
2022-10-05T17:06:38.492Z,97969.91
2022-10-05T17:09:27.592Z,97978.84
2022-10-05T17:12:03.315Z,97974.44
2022-10-05T17:14:42.106Z,97977.97
2022-10-05T17:17:24.586Z,97977.97
2022-10-05T17:19:59.271Z,97980.69
2022-10-05T17:22:32.307Z,97978.84
2022-10-05T17:25:05.204Z,97979.72
2022-10-05T17:27:36.073Z,97985.13
2022-10-05T17:30:22.779Z,97989.63
2022-10-05T17:33:04.725Z,97989.53
2022-10-05T17:36:13.721Z,97997.59
2022-10-05T17:39:14.818Z,97996.75
2022-10-05T17:41:43.626Z,97992.31
2022-10-05T17:44:32.973Z,97995.00
2022-10-05T17:47:01.576Z,97996.75
2022-10-05T17:50:14.353Z,97990.41
2022-10-05T17:53:02.393Z,97989.53
2022-10-05T17:55:50.917Z,97990.41
2022-10-05T17:59:01.835Z,97991.28
2022-10-05T18:01:32.833Z,97993.00
2022-10-05T18:04:26.665Z,97987.59
2022-10-05T18:07:02.691Z,97988.47
2022-10-05T18:09:33.357Z,97993.88
2022-10-05T18:12:12.431Z,97990.28
2022-10-05T18:15:00.120Z,97992.91
2022-10-05T18:17:41.262Z,97993.75
2022-10-05T18:20:31.662Z,97994.63
2022-10-05T18:23:29.604Z,97991.06
2022-10-05T18:26:03.251Z,97985.78
2022-10-05T18:28:40.908Z,97996.56
2022-10-05T18:31:17.447Z,97991.16
2022-10-05T18:34:13.556Z,98004.53
2022-10-05T18:36:52.784Z,98001.84
2022-10-05T18:39:29.788Z,97999.16
2022-10-05T18:42:03.648Z,97996.38
2022-10-05T18:44:37.810Z,97999.06
2022-10-05T18:47:10.516Z,98004.38
2022-10-05T18:49:47.351Z,98003.59
2022-10-05T18:52:19.358Z,98000.78
2022-10-05T18:54:55.030Z,98001.78
2022-10-05T18:57:37.167Z,98007.06
2022-10-05T19:00:11.307Z,98004.47
2022-10-05T19:02:43.182Z,98002.53
2022-10-05T19:05:45.813Z,97999.84
2022-10-05T19:08:10.719Z,98001.56
2022-10-05T19:10:42.770Z,97993.50
2022-10-05T19:13:17.526Z,98002.44
2022-10-05T19:15:50.947Z,98013.31
2022-10-05T19:18:31.996Z,98010.63
2022-10-05T19:21:04.063Z,98008.72
2022-10-05T19:23:48.325Z,98018.50
2022-10-05T19:26:18.129Z,98018.50
2022-10-05T19:28:53.331Z,98012.44
2022-10-05T19:31:29.729Z,98013.22
2022-10-05T19:34:04.332Z,98016.06
2022-10-05T19:36:41.535Z,98017.81
2022-10-05T19:39:12.190Z,98018.69
2022-10-05T19:41:54.919Z,98018.75
2022-10-05T19:44:30.887Z,98019.63
2022-10-05T19:47:02.766Z,98025.00
2022-10-05T19:49:49.204Z,98019.72
2022-10-05T19:52:22.834Z,98029.44
2022-10-05T19:55:02.292Z,98027.81
2022-10-05T19:57:30.967Z,98033.09
2022-10-05T20:00:02.775Z,98029.53
2022-10-05T20:02:38.659Z,98032.31
2022-10-05T20:05:13.720Z,98033.28
2022-10-05T20:07:43.466Z,98032.41
2022-10-05T20:10:29.264Z,98040.47
2022-10-05T20:12:58.524Z,98044.09
2022-10-05T20:15:45.229Z,98043.44
2022-10-05T20:19:06.198Z,98044.31
2022-10-05T20:21:49.009Z,98048.03
2022-10-05T20:24:18.463Z,98042.66
2022-10-05T20:27:05.328Z,98048.03
2022-10-05T20:29:35.700Z,98054.19
2022-10-05T20:32:08.324Z,98043.53
2022-10-05T20:34:41.479Z,98052.53
2022-10-05T20:37:10.706Z,98053.59
2022-10-05T20:39:39.202Z,98054.28
2022-10-05T20:42:07.981Z,98059.66
2022-10-05T20:44:36.854Z,98057.06
2022-10-05T20:47:05.741Z,98054.44
2022-10-05T20:49:35.355Z,98058.97
2022-10-05T20:52:05.115Z,98056.19
2022-10-05T20:54:33.742Z,98062.44
2022-10-05T20:57:02.495Z,98058.88
2022-10-05T20:59:30.833Z,98060.78
2022-10-05T21:01:59.422Z,98068.09
2022-10-05T21:04:36.083Z,98071.56
2022-10-05T21:07:10.471Z,98068.97
2022-10-05T21:09:43.653Z,98064.53
2022-10-05T21:12:12.147Z,98066.44
2022-10-05T21:14:40.735Z,98066.44
2022-10-05T21:17:09.710Z,98071.91
2022-10-05T21:19:39.759Z,98078.31
2022-10-05T21:22:09.944Z,98074.69
2022-10-05T21:24:38.696Z,98077.38
2022-10-05T21:27:06.996Z,98073.03
2022-10-05T21:29:36.606Z,98073.03
2022-10-05T21:32:08.662Z,98078.41
2022-10-05T21:34:37.071Z,98075.78
2022-10-05T21:37:05.467Z,98074.91
2022-10-05T21:39:36.830Z,98076.63
2022-10-05T21:42:05.617Z,98070.47
2022-10-05T21:44:34.009Z,98077.69
2022-10-05T21:47:02.531Z,98077.69
2022-10-05T21:49:31.317Z,98077.75
2022-10-05T21:52:00.175Z,98082.19
2022-10-05T21:54:28.768Z,98076.03
2022-10-05T21:56:58.554Z,98076.91
2022-10-05T21:59:29.098Z,98076.13
2022-10-05T22:01:57.772Z,98076.97
2022-10-05T22:04:26.392Z,98081.41
2022-10-05T22:06:54.975Z,98080.63
2022-10-05T22:09:23.666Z,98076.13
2022-10-05T22:11:52.231Z,98087.72
2022-10-05T22:14:22.027Z,98087.84
2022-10-05T22:16:50.466Z,98084.34
2022-10-05T22:19:20.227Z,98076.28
2022-10-05T22:21:49.536Z,98081.75
2022-10-05T22:24:17.880Z,98074.47
2022-10-05T22:26:46.688Z,98081.66
2022-10-05T22:29:16.077Z,98071.09
2022-10-05T22:31:48.490Z,98083.56
2022-10-05T22:34:16.991Z,98086.19
2022-10-05T22:36:45.978Z,98083.47
2022-10-05T22:39:14.480Z,98074.56
2022-10-05T22:41:42.891Z,98073.69
2022-10-05T22:44:11.207Z,98077.25
2022-10-05T22:46:39.804Z,98071.88
2022-10-05T22:49:09.543Z,98080.00
2022-10-05T22:51:37.860Z,98076.56
2022-10-05T22:54:06.523Z,98080.00
2022-10-05T22:56:35.042Z,98087.25
2022-10-05T22:59:03.286Z,98089.84
2022-10-05T23:01:31.661Z,98080.00
2022-10-05T23:03:59.972Z,98085.59
2022-10-05T23:06:29.743Z,98084.69
2022-10-05T23:08:58.278Z,98086.56
2022-10-05T23:11:27.431Z,98087.50
2022-10-05T23:13:57.058Z,98095.47
2022-10-05T23:16:26.956Z,98086.59
2022-10-05T23:18:55.607Z,98093.75
2022-10-05T23:21:25.127Z,98102.69
2022-10-05T23:23:54.825Z,98094.63
2022-10-05T23:26:23.741Z,98097.38
2022-10-05T23:28:52.183Z,98102.75
2022-10-05T23:31:21.347Z,98107.28
2022-10-05T23:33:49.679Z,98108.13
2022-10-05T23:36:18.945Z,98107.28
2022-10-05T23:38:47.245Z,98112.66
2022-10-05T23:41:17.311Z,98113.59
2022-10-05T23:43:45.612Z,98107.28
2022-10-05T23:46:14.453Z,98108.22
2022-10-05T23:48:42.978Z,98113.50
2022-10-05T23:51:12.841Z,98110.13
2022-10-05T23:53:43.947Z,98109.19
2022-10-05T23:56:12.367Z,98110.13
2022-10-05T23:58:42.193Z,98113.59
